This is the latest recevied weather packets stored in our database for station/object N7FEQ. If no packets are shown the sender has not sent any weather packets the latest 10 day(s).
| Time | Temp. | Humidity | Pressure | Rain* | Wind** | Luminosity | Snow |
|---|---|---|---|---|---|---|---|
| 1777698310 | 15° C | 20% | 1017.4 hPa | 0 mm | - | - | - |
| 1777696458 | 15.56° C | 19% | 1017.3 hPa | 0 mm | - | - | - |
| 1777695838 | 15.56° C | 18% | 1017.3 hPa | 0 mm | - | - | - |
| 1777694608 | 16.67° C | 17% | 1017 hPa | 0 mm | - | - | - |
| 1777692746 | 17.78° C | 16% | 1016.6 hPa | 0 mm | - | - | - |
| 1777691506 | 18.33° C | 15% | 1016.2 hPa | 0 mm | - | - | - |
| 1777687285 | 20.56° C | 14% | 1016 hPa | 0 mm | - | - | - |
| 1777682291 | 22.78° C | 14% | 1016.3 hPa | 0 mm | - | - | - |
| 1777681091 | 23.33° C | 13% | 1016.5 hPa | 0 mm | - | - | - |
| 1777679231 | 23.33° C | 13% | 1016.6 hPa | 0 mm | - | - | - |
| 1777671903 | 23.89° C | 14% | 1018.3 hPa | 0 mm | - | - | - |
| 1777656509 | 20° C | 21% | 1020.7 hPa | 0 mm | - | - | - |
| 1777655272 | 18.89° C | 23% | 1020.7 hPa | 0 mm | - | - | - |
| 1777654652 | 18.33° C | 23% | 1020.7 hPa | 0 mm | - | - | - |
| 1777643600 | 6.11° C | 53% | 1020.1 hPa | 0 mm | - | - | - |
| 1777637432 | 6.11° C | 47% | 1019.4 hPa | 0 mm | - | - | - |
| 1777636190 | 7.22° C | 44% | 1019.4 hPa | 0 mm | - | - | - |
| 1777632637 | 8.33° C | 41% | 1019 hPa | 0 mm | - | - | - |
| 1777623800 | 10° C | 37% | 1019 hPa | 0 mm | - | - | - |
| 1777619494 | 11.67° C | 34% | 1018.7 hPa | 0 mm | - | - | - |
| 1777615798 | 11.67° C | 35% | 1018.6 hPa | 0 mm | - | - | - |
| 1777615177 | 11.67° C | 34% | 1018.6 hPa | 0 mm | - | - | - |
| 1777614559 | 12.22° C | 33% | 1018.4 hPa | 0 mm | - | - | - |
| 1777612085 | 13.33° C | 30% | 1018.4 hPa | 0 mm | - | - | - |
| 1777608382 | 15.56° C | 26% | 1017.7 hPa | 0 mm | - | - | - |
* Rain latest hour (hover to see other rain measurements)
** Current wind speed in m/s (hover to see current wind gust speed)